Time;durP1;ratioP1;P1;durP2;ratioP2;P2;SDS_P1;SDS_P2;PMS_P1;PMS_P2;Temp;Humidity;BMP_temperature;BMP_pressure;BME280_temperature;BME280_humidity;BME280_pressure;Samples;Min_cycle;Max_cycle;Signal;HPM_P1;HPM_P2
2023/09/14 00:00:48;;;;;;;5.50;1.75;;;12.00;99.90;;;;;;5070170;28;20523;-70
2023/09/14 00:03:14;;;;;;;5.78;1.67;;;12.10;99.90;;;;;;5068559;28;20080;-71
2023/09/14 00:05:41;;;;;;;10.88;2.33;;;12.00;99.90;;;;;;5068432;28;20072;-72
2023/09/14 00:08:07;;;;;;;7.50;2.05;;;12.00;99.90;;;;;;5069547;28;20509;-71
2023/09/14 00:10:32;;;;;;;5.53;1.73;;;12.00;99.90;;;;;;5069289;28;20083;-71
2023/09/14 00:12:59;;;;;;;5.25;1.50;;;12.00;99.90;;;;;;5068120;28;20136;-70
2023/09/14 00:15:25;;;;;;;7.75;1.70;;;12.00;99.90;;;;;;5067638;28;20044;-71
2023/09/14 00:17:51;;;;;;;7.28;1.98;;;12.00;99.90;;;;;;5068966;28;20051;-71
2023/09/14 00:20:21;;;;;;;7.50;2.58;;;12.00;99.90;;;;;;5067681;28;20056;-71
2023/09/14 00:22:49;;;;;;;9.65;2.03;;;12.00;99.90;;;;;;5068766;28;20087;-71
2023/09/14 00:25:14;;;;;;;7.50;1.90;;;12.00;99.90;;;;;;5068976;28;20040;-71
2023/09/14 00:27:40;;;;;;;8.48;1.80;;;12.10;99.90;;;;;;5069114;28;20405;-70
2023/09/14 00:30:06;;;;;;;8.32;2.15;;;12.00;99.90;;;;;;5068850;28;20452;-70
2023/09/14 00:32:38;;;;;;;6.85;2.00;;;12.00;99.90;;;;;;5068187;28;20043;-71
2023/09/14 00:35:05;;;;;;;5.60;1.67;;;12.10;99.90;;;;;;5067495;28;20179;-72
2023/09/14 00:37:31;;;;;;;8.23;2.10;;;12.10;99.90;;;;;;5068837;28;20050;-71
2023/09/14 00:39:57;;;;;;;6.97;1.88;;;12.10;99.90;;;;;;5068788;28;20045;-71
2023/09/14 00:42:22;;;;;;;5.90;2.00;;;12.10;99.90;;;;;;5068984;28;20052;-70
2023/09/14 00:44:48;;;;;;;5.68;1.67;;;12.10;99.90;;;;;;5068594;28;20131;-71
2023/09/14 00:47:14;;;;;;;5.75;1.75;;;12.10;99.90;;;;;;5066787;28;20048;-70
2023/09/14 00:49:41;;;;;;;6.53;1.83;;;12.10;99.90;;;;;;5068142;28;20412;-71
2023/09/14 00:52:10;;;;;;;9.10;1.73;;;12.10;99.90;;;;;;5067252;28;20106;-70
2023/09/14 00:54:37;;;;;;;6.43;1.90;;;12.10;99.90;;;;;;5067934;28;20053;-70
2023/09/14 00:57:04;;;;;;;5.35;1.70;;;12.10;99.90;;;;;;5067922;28;20094;-71
2023/09/14 00:59:31;;;;;;;9.02;1.95;;;12.10;99.90;;;;;;5068021;28;20577;-71
2023/09/14 01:01:57;;;;;;;6.40;1.80;;;12.00;99.90;;;;;;5066661;28;20033;-70
2023/09/14 01:04:23;;;;;;;5.75;1.70;;;12.10;99.90;;;;;;5066726;28;20048;-71
2023/09/14 01:06:49;;;;;;;6.75;1.73;;;12.10;99.90;;;;;;5067918;28;20125;-71
2023/09/14 01:09:15;;;;;;;9.00;1.88;;;12.10;99.90;;;;;;5068193;28;20686;-71
2023/09/14 01:11:41;;;;;;;5.68;1.63;;;12.00;99.90;;;;;;5067240;28;20048;-71
2023/09/14 01:14:09;;;;;;;7.78;1.95;;;12.00;99.90;;;;;;5065605;28;20660;-71
2023/09/14 01:16:56;;;;;;;6.40;1.67;;;12.00;99.90;;;;;;5064957;28;20115;-71
2023/09/14 01:19:50;;;;;;;6.97;1.63;;;12.10;99.90;;;;;;5048015;28;20052;-70
2023/09/14 01:22:52;;;;;;;6.50;1.80;;;12.00;99.90;;;;;;5056302;28;20801;-72
2023/09/14 01:25:30;;;;;;;8.93;2.15;;;12.00;99.90;;;;;;5065768;28;20044;-71
2023/09/14 01:28:07;;;;;;;6.22;1.80;;;12.00;99.90;;;;;;5065890;28;20133;-71
2023/09/14 01:30:32;;;;;;;6.57;1.83;;;12.00;99.90;;;;;;5057015;28;20052;-71
2023/09/14 01:32:58;;;;;;;7.05;1.85;;;12.00;99.90;;;;;;5066370;28;20044;-70
2023/09/14 01:35:27;;;;;;;8.52;2.17;;;12.00;99.90;;;;;;5065880;28;20678;-71
2023/09/14 01:37:55;;;;;;;7.63;1.90;;;12.00;99.90;;;;;;5099168;28;20049;-70
2023/09/14 01:40:22;;;;;;;4.28;1.52;;;12.00;99.90;;;;;;5065665;28;20049;-71
2023/09/14 01:42:49;;;;;;;5.80;1.98;;;11.90;99.90;;;;;;5067352;28;20052;-71
2023/09/14 01:45:15;;;;;;;7.32;2.10;;;11.90;99.90;;;;;;5065063;28;20067;-71
2023/09/14 01:47:41;;;;;;;6.60;1.98;;;11.90;99.90;;;;;;5064191;28;20129;-71
2023/09/14 01:50:07;;;;;;;6.53;2.08;;;11.90;99.90;;;;;;5066023;28;20501;-71
2023/09/14 01:52:33;;;;;;;5.43;1.80;;;11.90;99.90;;;;;;5066909;28;20061;-72
2023/09/14 01:54:59;;;;;;;6.07;1.90;;;11.90;99.90;;;;;;5065864;28;20075;-71
2023/09/14 01:57:24;;;;;;;12.50;2.22;;;11.80;99.90;;;;;;5064176;28;20052;-71
2023/09/14 01:59:50;;;;;;;7.57;2.08;;;11.80;99.90;;;;;;5066975;28;20040;-71
2023/09/14 02:02:16;;;;;;;5.43;2.08;;;11.80;99.90;;;;;;5064859;28;20123;-71
2023/09/14 02:04:42;;;;;;;6.93;2.00;;;11.80;99.90;;;;;;5062093;28;20135;-72
2023/09/14 02:07:08;;;;;;;7.03;2.28;;;11.80;99.90;;;;;;5064866;28;20056;-71
2023/09/14 02:09:33;;;;;;;7.10;2.00;;;11.80;99.90;;;;;;5066298;28;20055;-71
2023/09/14 02:11:59;;;;;;;7.70;2.30;;;11.80;99.90;;;;;;5065872;28;20595;-71
2023/09/14 02:14:25;;;;;;;7.40;1.95;;;11.70;99.90;;;;;;5065341;28;20036;-71
2023/09/14 02:16:50;;;;;;;7.70;2.05;;;11.70;99.90;;;;;;5047893;28;20089;-71
2023/09/14 02:19:16;;;;;;;8.82;2.45;;;11.70;99.90;;;;;;5067096;28;20040;-70
2023/09/14 02:21:45;;;;;;;7.10;1.95;;;11.70;99.90;;;;;;5067184;28;20135;-70
2023/09/14 02:24:10;;;;;;;6.25;2.08;;;11.70;99.90;;;;;;5066377;28;20105;-70
2023/09/14 02:26:36;;;;;;;7.38;2.50;;;11.70;99.90;;;;;;5065785;28;20485;-70
2023/09/14 02:29:03;;;;;;;7.05;2.22;;;11.70;99.90;;;;;;5066391;28;20157;-70
2023/09/14 02:31:28;;;;;;;5.30;1.80;;;11.60;99.90;;;;;;5065803;28;20187;-70
2023/09/14 02:33:54;;;;;;;5.80;1.88;;;11.60;99.90;;;;;;5065865;28;20667;-71
2023/09/14 02:36:21;;;;;;;7.97;2.33;;;11.60;99.90;;;;;;5066495;28;20048;-70
2023/09/14 02:38:47;;;;;;;6.57;2.15;;;11.60;99.90;;;;;;5065837;28;20044;-71
2023/09/14 02:41:15;;;;;;;5.97;2.10;;;11.60;99.90;;;;;;5066031;28;20119;-70
2023/09/14 02:43:41;;;;;;;6.82;2.00;;;11.50;99.90;;;;;;5065393;28;20424;-70
2023/09/14 02:46:07;;;;;;;5.93;2.08;;;11.50;99.90;;;;;;5048342;28;20120;-70
2023/09/14 02:48:32;;;;;;;11.13;2.10;;;11.50;99.90;;;;;;5065618;28;20048;-70
2023/09/14 02:50:58;;;;;;;6.75;2.08;;;11.40;99.90;;;;;;5066758;28;20045;-70
2023/09/14 02:53:24;;;;;;;6.85;2.13;;;11.40;99.90;;;;;;5050979;28;20040;-70
2023/09/14 02:55:49;;;;;;;5.47;2.00;;;11.40;99.90;;;;;;5065908;28;20043;-71
2023/09/14 02:58:15;;;;;;;6.47;2.10;;;11.40;99.90;;;;;;5066550;28;20444;-70
2023/09/14 03:00:41;;;;;;;6.60;1.88;;;11.40;99.90;;;;;;5066563;28;20049;-70
2023/09/14 03:03:11;;;;;;;6.70;2.22;;;11.30;99.90;;;;;;5066770;28;20036;-70
2023/09/14 03:05:37;;;;;;;9.63;2.30;;;11.30;99.90;;;;;;5066228;28;20040;-71
2023/09/14 03:08:03;;;;;;;4.80;1.77;;;11.30;99.90;;;;;;5065527;28;20575;-71
2023/09/14 03:10:29;;;;;;;6.63;2.25;;;11.20;99.90;;;;;;5066962;28;20131;-70
2023/09/14 03:12:54;;;;;;;5.13;1.65;;;11.20;99.90;;;;;;5065394;28;20406;-70
2023/09/14 03:15:20;;;;;;;6.28;2.00;;;11.10;99.90;;;;;;5066260;28;20051;-70
2023/09/14 03:17:46;;;;;;;7.63;2.33;;;11.10;99.90;;;;;;5065829;28;20060;-70
2023/09/14 03:20:11;;;;;;;5.50;1.65;;;11.10;99.90;;;;;;5057554;28;20119;-70
2023/09/14 03:22:37;;;;;;;5.40;2.05;;;11.20;99.90;;;;;;5046763;28;20076;-71
2023/09/14 03:25:03;;;;;;;5.53;2.00;;;11.00;99.90;;;;;;5064362;28;20045;-71
2023/09/14 03:27:29;;;;;;;7.18;1.98;;;11.00;99.90;;;;;;5065536;28;20045;-70
2023/09/14 03:29:54;;;;;;;4.55;2.03;;;10.90;99.90;;;;;;5065994;28;20390;-71
2023/09/14 03:32:20;;;;;;;4.95;1.80;;;10.90;99.90;;;;;;5063784;28;20131;-71
2023/09/14 03:34:46;;;;;;;5.22;2.05;;;10.80;99.90;;;;;;5065710;28;20047;-71
2023/09/14 03:37:12;;;;;;;8.15;2.40;;;10.80;99.90;;;;;;5064918;28;20592;-71
2023/09/14 03:39:38;;;;;;;9.20;2.30;;;10.80;99.90;;;;;;5064161;28;20494;-72
2023/09/14 03:42:05;;;;;;;5.28;1.90;;;10.80;99.90;;;;;;5063363;28;20053;-71
2023/09/14 03:44:31;;;;;;;4.45;1.73;;;10.80;99.90;;;;;;5057159;28;20037;-70
2023/09/14 03:46:57;;;;;;;6.25;2.00;;;10.70;99.90;;;;;;5052361;28;21661;-70
2023/09/14 03:49:22;;;;;;;5.88;2.30;;;10.70;99.90;;;;;;5069018;28;20143;-70
2023/09/14 03:51:48;;;;;;;6.60;2.47;;;10.70;99.90;;;;;;5063788;28;20091;-64
2023/09/14 03:54:14;;;;;;;5.07;2.10;;;10.60;99.90;;;;;;5064968;28;20509;-64
2023/09/14 03:56:39;;;;;;;6.95;2.28;;;10.60;99.90;;;;;;5067509;28;20047;-64
2023/09/14 03:59:05;;;;;;;6.53;2.10;;;10.60;99.90;;;;;;5065102;28;20040;-64
2023/09/14 04:01:31;;;;;;;5.95;2.45;;;10.50;99.90;;;;;;5065741;28;20559;-64
2023/09/14 04:03:57;;;;;;;7.63;2.30;;;10.50;99.90;;;;;;5066139;28;20143;-64
2023/09/14 04:06:22;;;;;;;5.20;2.70;;;10.50;99.90;;;;;;5067890;28;20044;-64
2023/09/14 04:08:48;;;;;;;6.35;2.33;;;10.40;99.90;;;;;;5067990;28;20044;-64
2023/09/14 04:11:14;;;;;;;6.70;2.38;;;10.40;99.90;;;;;;5068013;28;20049;-64
2023/09/14 04:13:39;;;;;;;8.10;2.72;;;10.40;99.90;;;;;;5068522;28;20086;-64
2023/09/14 04:16:05;;;;;;;5.53;2.45;;;10.40;99.90;;;;;;5069439;28;20049;-64
2023/09/14 04:18:38;;;;;;;6.72;2.10;;;10.40;99.90;;;;;;5069124;28;20036;-64
2023/09/14 04:21:05;;;;;;;8.48;2.63;;;10.40;99.90;;;;;;5068939;28;20159;-64
2023/09/14 04:23:30;;;;;;;6.57;2.72;;;10.30;99.90;;;;;;5068946;28;20042;-65
2023/09/14 04:25:56;;;;;;;7.80;2.50;;;10.30;99.90;;;;;;5068663;28;20033;-64
2023/09/14 04:28:22;;;;;;;6.07;2.40;;;10.30;99.90;;;;;;5069193;28;20040;-64
2023/09/14 04:30:53;;;;;;;5.95;2.20;;;10.20;99.90;;;;;;5068226;28;20047;-64
2023/09/14 04:33:19;;;;;;;;;;;10.20;99.90;;;;;;5066571;28;20432;-65
2023/09/14 04:35:46;;;;;;;7.80;2.65;;;10.20;99.90;;;;;;5059874;28;19925;-64
2023/09/14 04:38:12;;;;;;;7.28;2.47;;;10.20;99.90;;;;;;5059631;28;20409;-64
2023/09/14 04:40:43;;;;;;;5.22;2.30;;;10.20;99.90;;;;;;5067784;28;20563;-64
2023/09/14 04:43:10;;;;;;;5.80;2.37;;;10.10;99.90;;;;;;5056140;28;20518;-64
2023/09/14 04:45:36;;;;;;;6.78;2.35;;;10.10;99.90;;;;;;5050478;28;21444;-64
2023/09/14 04:48:02;;;;;;;5.90;2.53;;;10.10;99.90;;;;;;5052720;28;20048;-64
2023/09/14 04:50:28;;;;;;;5.03;2.15;;;10.10;99.90;;;;;;5082009;28;20071;-64
2023/09/14 04:52:54;;;;;;;6.05;2.40;;;10.10;99.90;;;;;;5063828;28;20048;-64
2023/09/14 04:55:21;;;;;;;5.55;2.42;;;10.00;99.90;;;;;;5063189;28;20425;-64
2023/09/14 04:57:46;;;;;;;7.50;2.20;;;10.10;99.90;;;;;;5065890;28;20040;-64
2023/09/14 05:00:13;;;;;;;6.55;2.25;;;10.00;99.90;;;;;;5062422;28;20052;-64
2023/09/14 05:02:39;;;;;;;7.53;2.20;;;10.00;99.90;;;;;;5062482;28;20032;-64
2023/09/14 05:05:07;;;;;;;8.77;2.20;;;10.00;99.90;;;;;;5067557;28;20115;-64
2023/09/14 05:07:33;;;;;;;4.72;2.10;;;10.00;99.90;;;;;;5067010;28;20045;-64
2023/09/14 05:09:59;;;;;;;6.22;2.28;;;9.90;99.90;;;;;;5067427;28;20115;-64
2023/09/14 05:12:25;;;;;;;7.57;2.00;;;9.90;99.90;;;;;;5062046;28;20711;-63
2023/09/14 05:14:51;;;;;;;6.75;2.17;;;9.90;99.90;;;;;;5058924;28;20049;-64
2023/09/14 05:17:16;;;;;;;5.50;2.15;;;9.90;99.90;;;;;;5045951;28;20037;-64
2023/09/14 05:19:42;;;;;;;5.18;2.08;;;9.90;99.90;;;;;;5049088;28;20136;-64
2023/09/14 05:22:09;;;;;;;5.82;2.10;;;9.90;99.90;;;;;;5048300;28;20045;-64
2023/09/14 05:24:37;;;;;;;5.05;2.30;;;9.90;99.90;;;;;;5057718;28;20052;-64
2023/09/14 05:27:03;;;;;;;7.90;2.65;;;9.90;99.90;;;;;;5060259;28;20048;-63
2023/09/14 05:29:29;;;;;;;10.60;2.58;;;9.90;99.90;;;;;;5055053;28;20045;-64
2023/09/14 05:31:55;;;;;;;6.55;2.60;;;9.80;99.90;;;;;;5056503;28;20049;-64
2023/09/14 05:34:20;;;;;;;9.27;2.75;;;9.80;99.90;;;;;;5054777;28;20051;-64
2023/09/14 05:36:46;;;;;;;7.20;2.50;;;9.80;99.90;;;;;;5058198;28;20052;-64
2023/09/14 05:39:13;;;;;;;7.05;2.60;;;9.90;99.90;;;;;;5058137;28;20107;-64
2023/09/14 05:41:40;;;;;;;6.70;2.70;;;9.80;99.90;;;;;;5058823;28;20163;-64
2023/09/14 05:44:10;;;;;;;7.82;2.53;;;9.80;99.90;;;;;;5056566;28;20049;-64
2023/09/14 05:46:36;;;;;;;8.20;2.63;;;9.80;99.90;;;;;;5060996;28;20113;-64
2023/09/14 05:49:02;;;;;;;6.53;2.42;;;9.90;99.90;;;;;;5063282;28;20119;-64
2023/09/14 05:51:28;;;;;;;9.32;2.47;;;10.00;99.90;;;;;;5058851;28;20048;-64
2023/09/14 05:53:55;;;;;;;7.60;2.40;;;9.90;99.90;;;;;;5060134;28;20048;-64
2023/09/14 05:56:21;;;;;;;8.68;2.03;;;9.90;99.90;;;;;;5054607;28;20045;-64
2023/09/14 05:58:47;;;;;;;8.05;2.42;;;10.00;99.90;;;;;;5049392;28;20071;-64
2023/09/14 06:01:14;;;;;;;7.45;2.60;;;10.00;99.90;;;;;;5058716;28;20044;-64
2023/09/14 06:03:40;;;;;;;6.18;2.38;;;10.00;99.90;;;;;;5056649;28;20383;-64
2023/09/14 06:06:05;;;;;;;5.25;1.92;;;10.10;99.90;;;;;;5063469;28;20070;-64
2023/09/14 06:08:31;;;;;;;8.77;2.33;;;10.10;99.90;;;;;;5052178;28;20057;-64
2023/09/14 06:10:58;;;;;;;8.55;2.25;;;10.10;99.90;;;;;;5055334;28;20799;-64
2023/09/14 06:13:24;;;;;;;7.40;2.10;;;10.20;99.90;;;;;;5058160;28;20044;-64
2023/09/14 06:15:50;;;;;;;5.78;1.83;;;10.20;99.90;;;;;;5058531;28;20037;-64
2023/09/14 06:18:16;;;;;;;6.57;2.05;;;10.20;99.90;;;;;;5062545;28;20052;-64
2023/09/14 06:20:43;;;;;;;11.45;2.60;;;10.30;99.90;;;;;;5057034;28;20059;-64
2023/09/14 06:23:08;;;;;;;9.77;2.65;;;10.30;99.90;;;;;;5052649;28;20036;-64
2023/09/14 06:25:34;;;;;;;7.15;2.67;;;10.30;99.90;;;;;;5052898;28;20071;-64
2023/09/14 06:28:00;;;;;;;6.20;2.10;;;10.40;99.90;;;;;;5048700;28;20060;-64
2023/09/14 06:30:26;;;;;;;8.40;2.50;;;10.30;99.90;;;;;;5047617;28;20044;-64
2023/09/14 06:32:52;;;;;;;6.63;2.10;;;10.30;99.90;;;;;;5046984;28;20037;-64
2023/09/14 06:35:17;;;;;;;9.07;2.63;;;10.40;99.90;;;;;;5047215;28;20041;-64
2023/09/14 06:37:43;;;;;;;6.47;2.00;;;10.40;99.90;;;;;;5049162;28;20045;-64
2023/09/14 06:40:10;;;;;;;8.02;2.45;;;10.40;99.90;;;;;;5050001;28;20051;-64
2023/09/14 06:42:36;;;;;;;5.45;2.17;;;10.40;99.90;;;;;;5049378;28;20041;-64
2023/09/14 06:45:02;;;;;;;8.10;1.80;;;10.50;99.90;;;;;;5049292;28;20888;-64
2023/09/14 06:47:27;;;;;;;8.00;2.53;;;10.50;99.90;;;;;;5054459;28;20044;-64
2023/09/14 06:49:53;;;;;;;5.18;2.45;;;10.60;99.90;;;;;;5058716;28;20101;-66
2023/09/14 06:52:19;;;;;;;7.35;2.30;;;10.60;99.90;;;;;;5054130;28;20517;-64
2023/09/14 06:54:46;;;;;;;8.48;2.42;;;10.60;99.90;;;;;;5053693;28;20682;-64
2023/09/14 06:57:12;;;;;;;7.88;1.73;;;10.60;99.90;;;;;;5061831;28;20619;-64
2023/09/14 06:59:38;;;;;;;8.27;2.50;;;10.70;99.90;;;;;;5049966;28;20128;-64
2023/09/14 07:02:04;;;;;;;7.35;2.08;;;10.80;99.90;;;;;;5054816;28;20132;-64
2023/09/14 07:04:30;;;;;;;6.20;2.25;;;10.80;99.90;;;;;;5052716;28;20059;-64
2023/09/14 07:06:56;;;;;;;7.32;2.30;;;10.90;99.90;;;;;;5051462;28;20613;-64
2023/09/14 07:09:23;;;;;;;11.30;2.30;;;11.00;99.90;;;;;;5061595;28;20131;-64
2023/09/14 07:11:49;;;;;;;6.93;2.05;;;11.10;99.90;;;;;;5048390;28;20065;-65
2023/09/14 07:14:14;;;;;;;6.28;2.20;;;11.20;99.90;;;;;;5060478;28;20037;-65
2023/09/14 07:16:40;;;;;;;7.13;2.00;;;11.40;99.90;;;;;;5064918;28;20394;-65
2023/09/14 07:19:06;;;;;;;7.25;1.92;;;11.50;99.90;;;;;;5053253;28;20140;-65
2023/09/14 07:21:37;;;;;;;6.95;2.13;;;11.70;99.90;;;;;;5062013;28;20044;-65
2023/09/14 07:24:06;;;;;;;5.95;1.67;;;11.80;99.90;;;;;;5066226;28;20241;-64
2023/09/14 07:26:35;;;;;;;6.28;1.65;;;12.00;99.90;;;;;;5064781;28;20068;-65
2023/09/14 07:29:01;;;;;;;6.85;1.70;;;12.20;99.90;;;;;;5064253;28;20825;-65
2023/09/14 07:31:27;;;;;;;5.68;1.60;;;12.30;99.90;;;;;;5063847;28;20036;-65
2023/09/14 07:33:56;;;;;;;7.88;1.70;;;12.50;99.90;;;;;;5052461;28;20443;-65
2023/09/14 07:36:22;;;;;;;7.13;1.60;;;12.70;99.90;;;;;;5043873;28;20534;-65
2023/09/14 07:38:47;;;;;;;8.43;1.90;;;12.80;99.90;;;;;;5046883;28;20059;-65
2023/09/14 07:41:13;;;;;;;9.25;1.70;;;13.10;99.90;;;;;;5048376;28;20755;-65
2023/09/14 07:43:39;;;;;;;5.30;1.50;;;13.20;99.90;;;;;;5048364;28;20048;-65
2023/09/14 07:46:04;;;;;;;7.95;1.80;;;13.40;99.90;;;;;;5048780;28;20746;-65
2023/09/14 07:48:31;;;;;;;7.20;1.65;;;13.60;99.90;;;;;;5050091;28;20464;-66
2023/09/14 07:50:56;;;;;;;8.48;2.08;;;13.80;99.90;;;;;;5049935;28;20036;-66
2023/09/14 07:53:22;;;;;;;9.60;1.88;;;13.90;99.90;;;;;;5051469;28;20121;-66
2023/09/14 07:55:52;;;;;;;8.13;1.60;;;14.10;99.90;;;;;;5029583;28;20051;-65
2023/09/14 07:58:20;;;;;;;5.85;1.40;;;14.20;99.90;;;;;;5046219;28;20049;-65
2023/09/14 08:00:46;;;;;;;9.02;1.88;;;14.40;99.90;;;;;;5051201;28;20110;-65
2023/09/14 08:03:15;;;;;;;9.45;1.67;;;14.60;99.90;;;;;;5047326;28;20089;-66
2023/09/14 08:05:41;;;;;;;8.65;2.47;;;14.70;99.90;;;;;;5043932;28;20044;-65
2023/09/14 08:08:09;;;;;;;8.02;1.70;;;14.80;99.90;;;;;;5051131;28;20075;-66
2023/09/14 08:10:35;;;;;;;11.02;1.70;;;14.90;99.90;;;;;;5048708;28;20450;-66
2023/09/14 08:13:01;;;;;;;9.60;1.70;;;15.20;99.90;;;;;;5050149;28;20147;-65
2023/09/14 08:15:29;;;;;;;9.93;2.10;;;15.30;99.90;;;;;;5047193;28;20071;-65
2023/09/14 08:17:55;;;;;;;10.63;1.98;;;15.40;99.90;;;;;;5050396;28;20068;-65
2023/09/14 08:20:20;;;;;;;7.95;1.65;;;15.50;99.90;;;;;;5029447;28;20401;-65
2023/09/14 08:22:48;;;;;;;8.55;2.05;;;15.60;99.90;;;;;;5049320;28;20070;-66
2023/09/14 08:25:15;;;;;;;7.03;1.63;;;15.60;99.90;;;;;;5044644;28;20057;-71
2023/09/14 08:27:43;;;;;;;6.63;1.52;;;15.70;99.90;;;;;;5061586;28;20040;-72
2023/09/14 08:30:10;;;;;;;7.38;1.80;;;15.80;99.90;;;;;;5059047;28;20059;-71
2023/09/14 08:32:36;;;;;;;12.80;2.13;;;15.90;99.90;;;;;;5047172;28;20178;-71
2023/09/14 08:35:27;;;;;;;7.20;1.40;;;15.90;99.90;;;;;;5049704;28;20048;-71
2023/09/14 08:37:54;;;;;;;7.03;1.48;;;15.90;99.90;;;;;;5051001;28;20421;-72
2023/09/14 08:40:20;;;;;;;7.00;1.85;;;16.00;99.90;;;;;;5061109;28;20048;-72
2023/09/14 08:42:49;;;;;;;9.82;2.05;;;16.10;99.90;;;;;;5054452;28;20081;-71
2023/09/14 08:45:36;;;;;;;9.20;1.35;;;16.10;99.90;;;;;;5042772;28;20103;-72
2023/09/14 08:48:03;;;;;;;6.70;1.95;;;16.20;99.90;;;;;;5046555;28;20053;-70
2023/09/14 08:50:31;;;;;;;11.52;1.63;;;16.20;99.90;;;;;;5046979;28;20059;-71
2023/09/14 08:52:57;;;;;;;7.45;1.65;;;16.20;99.90;;;;;;5049486;28;20917;-72
2023/09/14 08:55:24;;;;;;;10.13;1.77;;;16.30;99.90;;;;;;5044624;28;20459;-72
2023/09/14 08:57:52;;;;;;;12.80;2.03;;;16.30;99.90;;;;;;5047739;28;20044;-72
2023/09/14 09:00:19;;;;;;;7.97;1.80;;;16.30;99.90;;;;;;5047064;28;20444;-72
2023/09/14 09:02:50;;;;;;;10.63;2.00;;;16.30;99.90;;;;;;5045525;28;20052;-72
2023/09/14 09:05:17;;;;;;;7.78;1.70;;;16.50;99.90;;;;;;5043258;28;20941;-73
2023/09/14 09:07:44;;;;;;;6.75;1.90;;;16.50;99.90;;;;;;5050528;28;20063;-72
2023/09/14 09:10:22;;;;;;;12.52;1.75;;;16.60;99.90;;;;;;5047932;28;20056;-72
2023/09/14 09:12:54;;;;;;;7.90;1.95;;;16.70;99.90;;;;;;5050235;28;20507;-72
2023/09/14 09:15:22;;;;;;;6.03;1.88;;;16.80;99.90;;;;;;5053163;28;20078;-73
2023/09/14 09:17:51;;;;;;;10.45;1.67;;;16.90;99.90;;;;;;5062906;28;20121;-72
2023/09/14 09:20:25;;;;;;;8.20;1.80;;;17.00;99.90;;;;;;5061357;28;20133;-73
2023/09/14 09:22:53;;;;;;;10.07;1.77;;;17.10;99.90;;;;;;5049559;28;20424;-72
2023/09/14 09:25:20;;;;;;;7.00;1.85;;;17.10;99.90;;;;;;5042650;28;20075;-73
2023/09/14 09:27:46;;;;;;;6.05;1.50;;;17.20;99.90;;;;;;5045357;28;20185;-71
2023/09/14 09:30:13;;;;;;;7.20;1.90;;;17.20;99.90;;;;;;5047199;28;20072;-71
2023/09/14 09:32:42;;;;;;;8.10;2.13;;;17.30;99.90;;;;;;5055474;28;20079;-72
2023/09/14 09:35:24;;;;;;;13.43;1.80;;;17.40;99.90;;;;;;5065870;28;20633;-72
2023/09/14 09:37:51;;;;;;;5.75;1.48;;;17.50;99.90;;;;;;5062440;28;20472;-72
2023/09/14 09:40:22;;;;;;;4.57;1.25;;;17.60;99.90;;;;;;5063236;28;20037;-71
2023/09/14 09:42:48;;;;;;;6.22;1.40;;;17.60;99.90;;;;;;5061405;28;20139;-72
2023/09/14 09:45:14;;;;;;;8.98;2.00;;;17.70;99.90;;;;;;5051568;28;20114;-72
2023/09/14 09:47:41;;;;;;;11.77;3.13;;;17.70;99.90;;;;;;5046941;28;20044;-71
2023/09/14 09:50:09;;;;;;;9.65;1.52;;;17.70;99.90;;;;;;5047029;28;20048;-71
2023/09/14 09:52:35;;;;;;;8.25;1.67;;;17.70;99.90;;;;;;5048396;28;20079;-71
2023/09/14 09:55:01;;;;;;;8.27;1.88;;;17.70;99.90;;;;;;5046414;28;20048;-71
2023/09/14 09:57:35;;;;;;;8.77;1.95;;;17.70;99.90;;;;;;5045477;28;20844;-70
2023/09/14 10:00:12;;;;;;;6.93;1.80;;;17.80;99.90;;;;;;5048975;28;20052;-71
2023/09/14 10:02:39;;;;;;;10.35;2.40;;;17.80;99.90;;;;;;5045515;28;20056;-66
2023/09/14 10:05:05;;;;;;;9.18;2.05;;;17.80;99.90;;;;;;5045070;28;20047;-66
2023/09/14 10:07:42;;;;;;;9.57;2.30;;;17.90;99.90;;;;;;5046044;28;20049;-66
2023/09/14 10:10:09;;;;;;;8.23;2.10;;;17.90;99.90;;;;;;5042814;28;20060;-66
2023/09/14 10:12:39;;;;;;;11.30;2.13;;;17.90;99.90;;;;;;5045773;28;20051;-66
2023/09/14 10:15:08;;;;;;;9.60;1.80;;;18.00;99.90;;;;;;5049586;28;20043;-66
2023/09/14 10:17:35;;;;;;;7.75;2.20;;;18.00;99.90;;;;;;5065078;28;20048;-66
2023/09/14 10:20:05;;;;;;;10.07;2.47;;;18.00;99.90;;;;;;5056184;28;20132;-66
2023/09/14 10:22:32;;;;;;;13.40;3.40;;;18.10;99.90;;;;;;5056432;28;20072;-66
2023/09/14 10:24:58;;;;;;;8.38;1.83;;;18.10;99.90;;;;;;5064085;28;21947;-65
2023/09/14 10:27:28;;;;;;;9.07;2.00;;;18.10;99.90;;;;;;5059868;28;20105;-72
2023/09/14 10:29:57;;;;;;;6.93;2.00;;;18.10;99.90;;;;;;5060408;28;20047;-72
2023/09/14 10:32:25;;;;;;;9.52;2.05;;;18.00;99.90;;;;;;5059471;28;20040;-72
2023/09/14 10:34:52;;;;;;;7.72;1.88;;;18.00;99.90;;;;;;5052812;28;20059;-73
2023/09/14 10:37:23;;;;;;;11.60;2.30;;;17.90;99.90;;;;;;5060470;28;20064;-72
2023/09/14 10:39:51;;;;;;;6.70;1.80;;;17.90;99.90;;;;;;5052308;28;20045;-72
2023/09/14 10:42:17;;;;;;;7.20;1.90;;;17.90;99.90;;;;;;5057050;28;20120;-72
2023/09/14 10:44:44;;;;;;;10.55;2.00;;;17.80;99.90;;;;;;5049232;28;20144;-74
2023/09/14 10:47:12;;;;;;;7.15;1.67;;;17.90;99.90;;;;;;5052020;28;20137;-72
2023/09/14 10:49:41;;;;;;;6.32;1.75;;;17.90;99.90;;;;;;5052396;28;20094;-72
2023/09/14 10:52:10;;;;;;;6.43;1.77;;;18.00;99.90;;;;;;5070363;28;20068;-71
2023/09/14 10:54:36;;;;;;;7.63;2.00;;;18.00;99.90;;;;;;5048065;28;20610;-72
2023/09/14 10:57:13;;;;;;;10.73;2.00;;;18.00;99.90;;;;;;5045834;28;20049;-72
2023/09/14 10:59:49;;;;;;;8.23;1.80;;;18.10;99.90;;;;;;5050738;28;20536;-72
2023/09/14 11:02:37;;;;;;;9.02;2.28;;;18.10;99.90;;;;;;5046919;28;20389;-72
2023/09/14 11:05:16;;;;;;;10.10;1.90;;;18.10;99.90;;;;;;5047857;28;20852;-72
2023/09/14 11:07:44;;;;;;;8.73;1.98;;;18.20;99.90;;;;;;5050308;28;20048;-71
2023/09/14 11:10:18;;;;;;;7.82;2.00;;;18.20;99.90;;;;;;5050810;28;20726;-71
2023/09/14 11:12:47;;;;;;;7.22;1.80;;;18.20;99.90;;;;;;5051972;28;20052;-73
2023/09/14 11:15:21;;;;;;;10.70;1.90;;;18.30;99.90;;;;;;5050036;28;20635;-74
2023/09/14 11:17:51;;;;;;;8.75;1.92;;;18.30;99.90;;;;;;5053421;28;20063;-73
2023/09/14 11:20:20;;;;;;;8.63;2.17;;;18.40;99.90;;;;;;5052575;28;20044;-73
2023/09/14 11:22:50;;;;;;;9.95;2.22;;;18.40;99.90;;;;;;5045021;28;20489;-73
2023/09/14 11:25:26;;;;;;;7.47;2.28;;;18.50;99.90;;;;;;5053912;28;20798;-72
2023/09/14 11:27:53;;;;;;;8.30;2.42;;;18.60;99.90;;;;;;5053025;28;20513;-72
2023/09/14 11:30:24;;;;;;;8.43;1.77;;;18.70;99.90;;;;;;5057234;28;20543;-73
2023/09/14 11:32:51;;;;;;;10.57;2.53;;;18.60;99.90;;;;;;5058080;28;20418;-73
2023/09/14 11:35:17;;;;;;;6.95;1.90;;;18.70;99.90;;;;;;5069211;28;20509;-72
2023/09/14 11:37:44;;;;;;;10.30;2.17;;;18.70;99.90;;;;;;5067009;28;20048;-72
2023/09/14 11:40:15;;;;;;;8.15;2.00;;;18.80;99.90;;;;;;5050426;28;20048;-72
2023/09/14 11:43:20;;;;;;;7.75;2.13;;;18.80;99.90;;;;;;5060316;28;20588;-71
2023/09/14 11:46:04;;;;;;;7.45;1.70;;;18.80;99.90;;;;;;5065819;28;20052;-72
2023/09/14 11:48:37;;;;;;;10.82;2.10;;;18.90;99.90;;;;;;5061565;28;20153;-73
2023/09/14 11:51:04;;;;;;;9.60;2.17;;;18.90;99.90;;;;;;5057581;28;20044;-73
2023/09/14 11:53:37;;;;;;;7.15;2.47;;;18.90;99.90;;;;;;5058433;28;20045;-73
2023/09/14 11:56:03;;;;;;;5.68;1.90;;;19.00;99.90;;;;;;5056888;28;20052;-67
2023/09/14 11:58:34;;;;;;;6.70;1.73;;;19.00;99.90;;;;;;5058101;28;20045;-67
2023/09/14 12:01:00;;;;;;;9.50;2.58;;;19.00;99.90;;;;;;5064854;28;20051;-67
2023/09/14 12:03:27;;;;;;;9.38;2.25;;;19.10;99.90;;;;;;5042506;28;20045;-67
2023/09/14 12:05:55;;;;;;;8.45;2.25;;;19.20;99.90;;;;;;5047101;28;20059;-67
2023/09/14 12:08:21;;;;;;;10.35;2.50;;;19.20;99.90;;;;;;5056115;28;20044;-67
2023/09/14 12:10:53;;;;;;;10.00;2.20;;;19.20;99.90;;;;;;5062232;28;20040;-66
2023/09/14 12:13:18;;;;;;;15.18;2.72;;;19.10;99.90;;;;;;5052517;28;20178;-67
2023/09/14 12:15:55;;;;;;;9.88;1.98;;;19.10;99.90;;;;;;5088745;28;20057;-66
2023/09/14 12:18:21;;;;;;;6.63;2.05;;;19.10;99.90;;;;;;5060583;28;20060;-66
2023/09/14 12:20:48;;;;;;;11.02;2.20;;;19.10;99.90;;;;;;5057760;28;20045;-66
2023/09/14 12:23:14;;;;;;;7.75;2.03;;;19.00;99.90;;;;;;5054964;28;20089;-66
2023/09/14 12:25:41;;;;;;;8.75;1.95;;;19.10;99.90;;;;;;5042617;28;20052;-68
2023/09/14 12:28:09;;;;;;;7.63;2.33;;;19.10;99.90;;;;;;5033549;28;20102;-66
2023/09/14 12:30:36;;;;;;;10.25;2.50;;;19.20;99.90;;;;;;5047165;28;21695;-66
2023/09/14 12:33:04;;;;;;;6.55;1.98;;;19.20;99.90;;;;;;5044556;28;20056;-67
2023/09/14 12:35:30;;;;;;;9.52;2.55;;;19.20;99.90;;;;;;5052819;28;20866;-66
2023/09/14 12:38:03;;;;;;;10.98;2.88;;;19.20;99.90;;;;;;5044665;28;20040;-67
2023/09/14 12:40:34;;;;;;;10.02;2.08;;;19.30;99.90;;;;;;5045825;28;20044;-66
2023/09/14 12:43:04;;;;;;;6.43;2.22;;;19.30;99.90;;;;;;5043607;28;20037;-66
2023/09/14 12:45:34;;;;;;;8.10;2.55;;;19.30;99.90;;;;;;5048612;28;20087;-67
2023/09/14 12:48:06;;;;;;;7.97;2.25;;;19.40;99.90;;;;;;5046125;28;20111;-72